LHPR/QGY METAR and TAF weather

Enter ICAO airport designator
Station Type Date Time Source
LHPR METAR 2021/09/24 03:15 UTC NOAA

LHPR 240315Z AUTO 24011KT CAVOK 14/09 Q1013


Station Type Date Time Source
LHPR Decoded METAR 2021/09/24 03:15 UTC NOAA

Station name not available
Sep 23, 2021 - 11:15 PM EDT / 2021.09.24 0315 UTC
Wind: from the WSW (240 degrees) at 13 MPH (11 KT):0
Visibility: greater than 7 mile(s):0
Temperature: 57 F (14 C)
Dew Point: 48 F (9 C)
Relative Humidity: 71%
Pressure (altimeter): 29.91 in. Hg (1013 hPa)
ob: LHPR 240315Z AUTO 24011KT CAVOK 14/09 Q1013
cycle: 3

Station Type Date Time Source
LHPR TAF UTC NOAA

Error!

Example: see airport list